Terminal Aerodrome Forecast
Issued by NWS

Home | Current Version | Previous Version | Text Only | Print | Product List | Glossary On
Versions: 1 2 3 4 5 6 7 8 9 10 11 12 13
000
FTUS45 KLKN 072338
TAFELY
TAF
KELY 072338Z 0800/0824 03005KT P6SM SCT150
     FM080200 16010KT P6SM BKN120
     FM081000 17011KT P6SM -SHSN OVC050
     FM081200 18012KT 5SM -SHSN OVC035=

USA.gov is the U.S. government's official web portal to all federal, state and local government web resources and services.